Time;durP1;ratioP1;P1;durP2;ratioP2;P2;SDS_P1;SDS_P2;PMS_P1;PMS_P2;Temp;Humidity;BMP_temperature;BMP_pressure;BME280_temperature;BME280_humidity;BME280_pressure;Samples;Min_cycle;Max_cycle;Signal;HPM_P1;HPM_P2
2022/02/25 00:00:42;;;;;;;0.67;0.33;;;;;;;8.21;52.96;97967.78;8345608;28;20415;-71
2022/02/25 00:04:45;;;;;;;1.30;0.43;;;;;;;8.27;53.09;97949.50;8346687;28;20236;-71
2022/02/25 00:08:50;;;;;;;0.73;0.60;;;;;;;8.03;53.75;97964.06;8351789;28;20231;-71
2022/02/25 00:12:53;;;;;;;1.10;0.50;;;;;;;7.97;54.44;97966.88;8352554;28;20228;-71
2022/02/25 00:16:56;;;;;;;2.07;0.80;;;;;;;8.09;54.49;97973.34;8352408;28;20239;-69
2022/02/25 00:20:59;;;;;;;1.43;0.50;;;;;;;8.00;54.55;97975.34;8351760;28;20251;-69
2022/02/25 00:25:04;;;;;;;0.93;0.50;;;;;;;7.98;54.68;97977.13;8351629;28;20239;-69
2022/02/25 00:29:07;;;;;;;2.30;0.60;;;;;;;7.94;54.72;97956.63;8351454;28;20240;-69
2022/02/25 00:33:11;;;;;;;2.63;0.83;;;;;;;7.96;54.52;97976.34;8351501;28;20228;-69
2022/02/25 00:37:14;;;;;;;1.73;0.67;;;;;;;7.79;55.19;97988.97;8351424;28;20242;-69
2022/02/25 00:41:19;;;;;;;2.47;0.80;;;;;;;7.85;54.73;97987.91;8351311;28;20235;-69
2022/02/25 00:45:22;;;;;;;2.53;0.87;;;;;;;7.78;55.00;97993.25;8350959;28;20240;-69
2022/02/25 00:49:27;;;;;;;3.47;1.07;;;;;;;7.65;55.42;97994.53;8351100;28;20274;-69
2022/02/25 00:53:30;;;;;;;1.60;1.00;;;;;;;7.54;55.55;98006.91;8350972;28;20228;-69
2022/02/25 00:57:35;;;;;;;2.47;0.80;;;;;;;7.63;55.03;98017.81;8350332;28;20228;-69
2022/02/25 01:01:38;;;;;;;2.57;1.00;;;;;;;7.81;54.31;98016.38;8350563;28;20239;-69
2022/02/25 01:05:41;;;;;;;2.50;1.10;;;;;;;7.25;55.62;98013.81;8350193;28;20259;-69
2022/02/25 01:09:46;;;;;;;1.77;0.90;;;;;;;7.44;55.20;98003.78;8350314;28;20243;-69
2022/02/25 01:13:51;;;;;;;2.27;1.07;;;;;;;7.52;54.34;98026.75;8350250;28;20291;-69
2022/02/25 01:17:54;;;;;;;3.20;1.13;;;;;;;7.69;53.88;98023.63;8349933;28;20571;-69
2022/02/25 01:21:57;;;;;;;3.23;1.20;;;;;;;7.43;54.44;98031.31;8349970;28;20243;-69
2022/02/25 01:26:00;;;;;;;2.40;1.13;;;;;;;7.49;53.86;98050.88;8349634;28;20232;-69
2022/02/25 01:30:06;;;;;;;2.23;1.13;;;;;;;7.59;53.61;98048.88;8350233;28;20235;-69
2022/02/25 01:34:09;;;;;;;1.23;0.90;;;;;;;7.35;53.89;98055.59;8350114;28;20232;-69
2022/02/25 01:38:11;;;;;;;2.83;0.97;;;;;;;7.24;53.93;98064.50;8349553;28;20227;-69
2022/02/25 01:42:14;;;;;;;1.93;0.97;;;;;;;7.35;53.33;98073.63;8349341;28;20247;-69
2022/02/25 01:46:21;;;;;;;2.77;1.13;;;;;;;7.44;53.46;98079.38;8351110;28;20236;-69
2022/02/25 01:50:24;;;;;;;2.27;1.00;;;;;;;7.51;52.74;98095.50;8350896;28;20208;-70
2022/02/25 01:54:28;;;;;;;3.07;1.40;;;;;;;7.39;53.03;98088.13;8351131;28;20204;-70
2022/02/25 01:58:31;;;;;;;2.47;1.07;;;;;;;7.31;53.61;98093.50;8350524;28;20496;-70
2022/02/25 02:02:36;;;;;;;2.43;1.07;;;;;;;7.49;52.60;98091.28;8348580;28;20228;-70
2022/02/25 02:06:39;;;;;;;2.10;1.30;;;;;;;7.50;52.62;98114.44;8348445;28;20577;-70
2022/02/25 02:10:43;;;;;;;3.50;1.20;;;;;;;7.38;53.53;98114.78;8348586;28;20246;-73
2022/02/25 02:14:48;;;;;;;2.40;1.30;;;;;;;7.61;53.07;98108.94;8348118;28;20236;-72
2022/02/25 02:18:52;;;;;;;2.60;1.30;;;;;;;7.71;52.66;98117.22;8348348;28;20248;-70
2022/02/25 02:22:57;;;;;;;4.50;1.50;;;;;;;7.60;52.13;98126.16;8348312;28;20235;-70
2022/02/25 02:27:00;;;;;;;3.07;1.20;;;;;;;7.48;52.92;98125.66;8347900;28;20236;-70
2022/02/25 02:31:03;;;;;;;2.37;1.27;;;;;;;7.48;52.28;98139.38;8347382;28;20239;-70
2022/02/25 02:35:07;;;;;;;2.40;1.00;;;;;;;7.57;52.21;98149.41;8348283;28;20525;-70
2022/02/25 02:39:12;;;;;;;2.13;1.10;;;;;;;7.47;52.26;98155.75;8348109;28;20234;-70
2022/02/25 02:43:14;;;;;;;3.03;1.10;;;;;;;7.48;52.10;98160.00;8348079;28;20232;-70
2022/02/25 02:47:18;;;;;;;2.60;1.10;;;;;;;7.51;52.17;98166.81;8347745;28;20232;-70
2022/02/25 02:51:21;;;;;;;3.57;1.37;;;;;;;7.62;52.07;98175.06;8347829;28;20235;-70
2022/02/25 02:55:25;;;;;;;5.07;1.30;;;;;;;7.52;51.63;98177.06;8348143;28;20232;-70
2022/02/25 02:59:28;;;;;;;3.70;1.27;;;;;;;7.57;51.54;98169.19;8347798;28;20420;-70
2022/02/25 03:03:32;;;;;;;2.97;1.43;;;;;;;7.61;51.15;98186.25;8347434;28;20228;-71
2022/02/25 03:07:35;;;;;;;2.80;1.30;;;;;;;7.36;51.80;98186.13;8347569;28;20259;-71
2022/02/25 03:11:40;;;;;;;3.67;1.30;;;;;;;7.27;52.30;98189.78;8347877;28;20228;-70
2022/02/25 03:15:46;;;;;;;3.47;1.20;;;;;;;7.52;51.40;98196.84;8347742;28;20240;-70
2022/02/25 03:19:49;;;;;;;2.33;1.20;;;;;;;7.53;51.37;98199.38;8347914;28;20247;-70
2022/02/25 03:23:53;;;;;;;2.67;1.37;;;;;;;7.41;51.91;98203.13;8347556;28;20234;-70
2022/02/25 03:27:58;;;;;;;5.37;1.50;;;;;;;7.15;52.74;98211.56;8347283;28;20236;-70
2022/02/25 03:32:01;;;;;;;4.10;1.33;;;;;;;7.08;51.93;98222.06;8347069;28;20228;-70
2022/02/25 03:36:04;;;;;;;4.00;1.30;;;;;;;7.36;51.69;98223.03;8346998;28;20410;-70
2022/02/25 03:40:09;;;;;;;3.83;1.40;;;;;;;7.38;52.21;98226.41;8348619;28;20240;-70
2022/02/25 03:44:14;;;;;;;3.43;1.43;;;;;;;7.06;52.84;98247.88;8353199;28;20232;-70
2022/02/25 03:48:17;;;;;;;3.27;1.20;;;;;;;7.01;52.62;98244.59;8352883;28;20243;-70
2022/02/25 03:52:21;;;;;;;4.90;1.37;;;;;;;7.33;51.51;98248.03;8352916;28;20232;-70
2022/02/25 03:56:24;;;;;;;3.20;1.20;;;;;;;7.49;51.27;98248.47;8353091;28;20539;-70
2022/02/25 04:00:28;;;;;;;5.47;1.67;;;;;;;7.45;51.30;98265.75;8352988;28;20227;-70
2022/02/25 04:04:31;;;;;;;5.30;1.50;;;;;;;7.34;51.75;98262.63;8351839;28;20232;-70
2022/02/25 04:08:34;;;;;;;2.43;1.30;;;;;;;7.31;50.91;98273.00;8352204;28;20232;-70
2022/02/25 04:12:37;;;;;;;4.50;1.60;;;;;;;7.21;51.33;98272.38;8352458;28;20232;-70
2022/02/25 04:16:42;;;;;;;3.60;1.50;;;;;;;7.22;51.00;98281.81;8352242;28;20562;-70
2022/02/25 04:20:45;;;;;;;3.10;1.47;;;;;;;7.16;51.03;98287.09;8351969;28;20274;-70
2022/02/25 04:24:48;;;;;;;4.13;1.40;;;;;;;7.23;50.79;98293.78;8352252;28;20239;-70
2022/02/25 04:28:51;;;;;;;4.53;1.53;;;;;;;6.96;50.98;98297.91;8351968;28;20437;-70
2022/02/25 04:32:56;;;;;;;4.33;1.50;;;;;;;7.10;50.58;98303.59;8351614;28;20232;-70
2022/02/25 04:36:59;;;;;;;4.57;1.70;;;;;;;7.21;50.13;98314.44;8351578;28;20323;-70
2022/02/25 04:41:02;;;;;;;5.70;1.70;;;;;;;7.28;50.25;98322.03;8351700;28;20232;-70
2022/02/25 04:45:06;;;;;;;3.70;1.47;;;;;;;7.20;50.37;98319.66;8351781;28;20453;-69
2022/02/25 04:49:13;;;;;;;7.50;1.80;;;;;;;6.97;50.96;98321.06;8351401;28;20425;-70
2022/02/25 04:53:16;;;;;;;5.67;1.60;;;;;;;6.91;50.73;98323.78;8350161;28;20236;-70
2022/02/25 04:57:19;;;;;;;4.40;1.60;;;;;;;6.85;50.96;98329.06;8351139;28;20239;-70
2022/02/25 05:01:23;;;;;;;4.27;1.70;;;;;;;6.95;51.10;98327.09;8350393;28;20229;-70
2022/02/25 05:05:27;;;;;;;3.73;1.43;;;;;;;6.92;50.66;98342.66;8350457;28;20287;-70
2022/02/25 05:09:30;;;;;;;6.17;1.50;;;;;;;6.95;50.75;98334.84;8350536;28;20228;-70
2022/02/25 05:13:34;;;;;;;5.37;1.73;;;;;;;6.85;50.69;98342.81;8350092;28;20236;-70
2022/02/25 05:21:59;;;;;;;5.13;1.93;;;;;;;6.91;50.32;98349.53;8350059;28;20543;-69
2022/02/25 05:26:02;;;;;;;4.10;1.63;;;;;;;6.88;50.53;98357.31;8348451;28;20407;-70
2022/02/25 05:30:06;;;;;;;5.50;2.13;;;;;;;6.67;50.05;98365.53;8349610;28;20551;-70
2022/02/25 05:34:09;;;;;;;6.63;2.63;;;;;;;6.77;50.25;98370.44;8349693;28;20228;-70
2022/02/25 05:38:14;;;;;;;6.93;1.70;;;;;;;6.52;51.10;98364.13;8348835;28;20236;-70
2022/02/25 05:42:17;;;;;;;5.03;1.77;;;;;;;6.55;50.49;98371.78;8349633;28;20278;-70
2022/02/25 05:46:20;;;;;;;6.07;1.53;;;;;;;6.84;49.81;98376.28;8349386;28;20428;-69
2022/02/25 05:50:24;;;;;;;3.27;1.63;;;;;;;6.88;49.49;98367.63;8349359;28;20295;-69
2022/02/25 05:54:30;;;;;;;3.53;1.60;;;;;;;6.70;50.10;98388.63;8348162;28;20252;-69
2022/02/25 05:58:33;;;;;;;6.60;1.87;;;;;;;6.95;49.52;98394.06;8348437;28;20547;-70
2022/02/25 06:02:36;;;;;;;5.77;2.00;;;;;;;6.71;49.66;98393.72;8348116;28;20240;-72
2022/02/25 06:06:39;;;;;;;4.37;1.73;;;;;;;6.74;49.60;98408.25;8346896;28;20231;-70
2022/02/25 06:10:44;;;;;;;4.87;1.60;;;;;;;6.62;49.77;98420.50;8346415;28;20230;-70
2022/02/25 06:14:47;;;;;;;5.10;2.07;;;;;;;6.67;49.70;98412.69;8347643;28;20231;-70
2022/02/25 06:18:50;;;;;;;6.80;1.80;;;;;;;6.78;49.58;98431.34;8346992;28;20232;-70
2022/02/25 06:22:53;;;;;;;5.87;1.90;;;;;;;6.89;49.24;98423.38;8348300;28;20224;-70
2022/02/25 06:26:58;;;;;;;5.03;1.80;;;;;;;6.89;49.01;98433.66;8348032;28;20235;-70
2022/02/25 06:31:00;;;;;;;6.63;2.40;;;;;;;6.79;49.35;98442.47;8347986;28;20227;-69
2022/02/25 06:35:04;;;;;;;4.77;2.07;;;;;;;6.95;49.08;98442.97;8347980;28;20238;-70
2022/02/25 06:39:08;;;;;;;8.60;2.97;;;;;;;6.88;49.48;98449.16;8347696;28;20412;-70
2022/02/25 06:43:12;;;;;;;5.67;2.40;;;;;;;7.36;47.84;98447.19;8347743;28;20551;-69
2022/02/25 06:47:15;;;;;;;8.93;2.90;;;;;;;7.82;46.82;98456.41;8347472;28;20436;-70
2022/02/25 06:51:18;;;;;;;9.43;2.30;;;;;;;8.15;46.12;98461.56;8347651;28;20228;-70
2022/02/25 06:55:21;;;;;;;4.80;1.83;;;;;;;8.60;45.42;98457.78;8347668;28;20235;-70
2022/02/25 06:59:41;;;;;;;7.67;2.30;;;;;;;8.47;44.92;98456.41;8346930;28;20232;-70
2022/02/25 07:03:47;;;;;;;5.53;2.13;;;;;;;8.75;44.75;98459.91;8347264;28;20351;-70
2022/02/25 07:07:51;;;;;;;5.60;2.07;;;;;;;8.99;44.59;98465.25;8347252;28;20240;-70
2022/02/25 07:11:54;;;;;;;7.47;2.47;;;;;;;8.79;44.65;98474.41;8347366;28;20507;-70
2022/02/25 07:16:00;;;;;;;7.73;2.10;;;;;;;8.80;44.07;98473.53;8349947;28;20231;-70
2022/02/25 07:20:05;;;;;;;8.20;2.53;;;;;;;8.85;45.34;98488.06;8354073;28;20247;-70
2022/02/25 07:24:20;;;;;;;7.30;2.77;;;;;;;9.01;44.15;98486.72;8354141;28;20231;-69
2022/02/25 07:28:28;;;;;;;10.63;2.97;;;;;;;9.43;43.97;98493.22;8353754;28;20243;-70
2022/02/25 07:32:32;;;;;;;9.07;3.23;;;;;;;9.67;43.50;98500.19;8353341;28;20239;-71
2022/02/25 07:36:36;;;;;;;11.00;3.10;;;;;;;9.76;42.60;98505.06;8353545;28;20242;-70
2022/02/25 07:40:39;;;;;;;8.77;3.00;;;;;;;10.05;41.76;98500.69;8353839;28;20323;-70
2022/02/25 07:44:42;;;;;;;9.33;3.07;;;;;;;10.21;41.63;98513.09;8353603;28;20240;-70
2022/02/25 07:48:47;;;;;;;7.30;3.00;;;;;;;10.21;41.12;98516.53;8353223;28;20247;-69
2022/02/25 07:52:50;;;;;;;10.13;3.00;;;;;;;10.02;41.70;98520.63;8353357;28;20232;-70
2022/02/25 07:56:53;;;;;;;9.60;2.87;;;;;;;10.56;41.13;98522.25;8353282;28;20242;-69
2022/02/25 08:00:57;;;;;;;7.27;2.10;;;;;;;10.28;41.41;98517.16;8352870;28;20577;-70
2022/02/25 08:05:06;;;;;;;7.07;2.40;;;;;;;11.03;39.99;98529.22;8352648;28;20224;-70
2022/02/25 08:09:10;;;;;;;7.30;2.53;;;;;;;11.19;39.20;98532.06;8352115;28;20229;-70
2022/02/25 08:13:13;;;;;;;10.50;2.63;;;;;;;10.96;39.76;98526.00;8352014;28;20231;-70
2022/02/25 08:17:16;;;;;;;8.60;2.50;;;;;;;11.08;39.48;98524.69;8352215;28;20412;-70
2022/02/25 08:21:21;;;;;;;10.90;2.93;;;;;;;11.47;38.90;98527.50;8351807;28;20235;-70
2022/02/25 08:25:24;;;;;;;12.07;3.10;;;;;;;11.46;37.71;98530.16;8351917;28;20236;-70
2022/02/25 08:29:27;;;;;;;9.20;2.73;;;;;;;11.53;37.68;98542.81;8350598;28;20235;-70
2022/02/25 08:33:30;;;;;;;14.17;2.90;;;;;;;11.72;37.04;98540.34;8349654;28;20224;-70
2022/02/25 08:37:34;;;;;;;12.87;2.90;;;;;;;12.77;45.78;98542.97;8351154;28;20227;-67
2022/02/25 08:41:37;;;;;;;13.50;2.43;;;;;;;12.77;40.24;98540.38;8351536;28;20228;-66
2022/02/25 08:45:41;;;;;;;13.27;2.87;;;;;;;13.93;41.11;98541.09;8351292;28;20240;-67
2022/02/25 08:49:45;;;;;;;7.67;2.20;;;;;;;13.79;33.51;98539.19;8351254;28;20318;-65
2022/02/25 08:53:49;;;;;;;7.83;2.30;;;;;;;13.54;32.14;98540.34;8351127;28;20232;-64
2022/02/25 08:57:52;;;;;;;9.67;2.40;;;;;;;13.65;31.81;98540.69;8351279;28;20400;-69
2022/02/25 09:01:55;;;;;;;7.83;2.23;;;;;;;13.69;31.51;98537.00;8351193;28;20212;-69
2022/02/25 09:05:58;;;;;;;8.83;2.20;;;;;;;13.99;31.03;98541.66;8350489;28;20228;-69
2022/02/25 09:10:04;;;;;;;7.57;2.73;;;;;;;13.29;32.21;98538.84;8350927;28;20236;-70
2022/02/25 09:14:07;;;;;;;7.97;2.60;;;;;;;13.92;31.44;98537.66;8351146;28;20235;-70
2022/02/25 09:18:10;;;;;;;6.30;2.30;;;;;;;13.22;32.84;98536.63;8350560;28;20232;-70
2022/02/25 09:22:13;;;;;;;9.77;2.90;;;;;;;13.65;32.96;98534.63;8350233;28;20376;-70
2022/02/25 09:26:18;;;;;;;6.47;2.53;;;;;;;13.93;31.94;98530.69;8350029;28;20240;-71
2022/02/25 09:30:24;;;;;;;9.57;2.50;;;;;;;14.69;31.73;98543.41;8350326;28;20256;-70
2022/02/25 09:34:27;;;;;;;11.47;2.60;;;;;;;13.53;32.46;98538.66;8350015;28;20228;-70
2022/02/25 09:38:29;;;;;;;9.70;2.87;;;;;;;14.29;31.74;98541.03;8349347;28;20254;-70
2022/02/25 09:42:34;;;;;;;11.27;3.07;;;;;;;14.24;31.77;98536.06;8349120;28;20220;-70
2022/02/25 09:46:37;;;;;;;10.77;2.80;;;;;;;14.37;31.92;98536.28;8348986;28;20236;-69
2022/02/25 09:50:42;;;;;;;12.23;2.90;;;;;;;14.36;31.33;98525.94;8349097;28;20435;-64
2022/02/25 09:54:45;;;;;;;9.93;2.50;;;;;;;13.24;32.92;98534.78;8349230;28;20579;-64
2022/02/25 09:58:50;;;;;;;7.97;2.93;;;;;;;12.23;34.16;98540.91;8348822;28;20232;-64
2022/02/25 10:02:56;;;;;;;9.60;2.83;;;;;;;12.38;34.02;98533.41;8349016;28;20247;-64
2022/02/25 10:06:59;;;;;;;7.67;2.63;;;;;;;13.82;32.14;98542.47;8348696;28;20248;-64
2022/02/25 10:11:03;;;;;;;10.97;2.70;;;;;;;12.49;33.80;98545.00;8348622;28;20342;-65
2022/02/25 10:15:08;;;;;;;7.63;2.53;;;;;;;12.17;34.06;98535.16;8347868;28;20239;-64
2022/02/25 10:19:12;;;;;;;8.20;2.40;;;;;;;11.86;34.76;98538.94;8348580;28;20433;-64
2022/02/25 10:23:25;;;;;;;11.27;2.70;;;;;;;12.44;34.31;98552.16;8348404;28;20502;-64
2022/02/25 10:27:31;;;;;;;10.30;2.73;;;;;;;11.66;34.14;98542.34;8347936;28;20250;-64
2022/02/25 10:31:38;;;;;;;7.37;2.30;;;;;;;11.13;34.65;98546.09;8347717;28;20450;-65
2022/02/25 10:35:41;;;;;;;10.03;2.73;;;;;;;10.86;35.42;98542.78;8347944;28;20235;-64
2022/02/25 10:39:46;;;;;;;9.93;2.50;;;;;;;11.09;34.79;98536.75;8348050;28;20454;-64
2022/02/25 10:43:49;;;;;;;8.43;2.63;;;;;;;12.07;33.68;98537.25;8347866;28;20232;-64
2022/02/25 10:47:58;;;;;;;14.60;2.67;;;;;;;12.21;33.05;98523.72;8347571;28;20232;-65
2022/02/25 10:52:01;;;;;;;10.63;2.83;;;;;;;12.72;32.63;98517.19;8347422;28;20231;-65
2022/02/25 10:56:06;;;;;;;9.10;2.80;;;;;;;12.53;32.46;98522.34;8347409;28;20231;-65
2022/02/25 11:00:11;;;;;;;9.50;2.77;;;;;;;12.75;31.75;98526.59;8347275;28;20231;-65
2022/02/25 11:04:15;;;;;;;8.97;2.67;;;;;;;13.63;32.09;98510.44;8347223;28;20232;-65
2022/02/25 11:08:18;;;;;;;10.40;2.73;;;;;;;11.94;31.59;98521.38;8347533;28;20232;-65
2022/02/25 11:12:21;;;;;;;7.37;2.17;;;;;;;11.49;33.10;98517.91;8347031;28;20238;-65
2022/02/25 11:16:25;;;;;;;12.03;2.50;;;;;;;11.03;33.80;98517.09;8347102;28;20235;-65
2022/02/25 11:20:50;;;;;;;8.87;2.90;;;;;;;10.81;33.46;98544.69;8346893;28;20235;-64
2022/02/25 11:24:54;;;;;;;6.00;2.20;;;;;;;10.95;33.94;98530.34;8347005;28;20227;-64
2022/02/25 11:29:09;;;;;;;7.40;2.43;;;;;;;11.92;32.12;98515.41;8346548;28;20247;-64
2022/02/25 11:33:15;;;;;;;8.80;2.27;;;;;;;11.07;32.49;98523.84;8346304;28;20228;-64
2022/02/25 11:37:44;;;;;;;7.23;2.20;;;;;;;11.74;32.31;98515.19;8346196;28;20228;-64
2022/02/25 11:41:52;;;;;;;7.50;2.20;;;;;;;11.84;31.65;98512.22;8343496;28;20231;-64
2022/02/25 11:45:55;;;;;;;5.40;2.30;;;;;;;12.77;31.14;98515.22;8345861;28;20243;-65
2022/02/25 11:49:58;;;;;;;9.27;2.83;;;;;;;12.38;31.91;98518.66;8345923;28;20251;-64
2022/02/25 11:54:40;;;;;;;7.10;2.30;;;;;;;12.29;31.49;98519.03;8346822;28;20239;-64
2022/02/25 11:58:47;;;;;;;6.37;1.90;;;;;;;12.64;30.42;98519.25;8346590;28;20239;-64
2022/02/25 12:03:13;;;;;;;7.67;2.40;;;;;;;12.30;31.85;98511.19;8350852;28;20413;-64
2022/02/25 12:07:16;;;;;;;8.67;2.27;;;;;;;12.66;31.05;98510.50;8352564;28;20270;-64
2022/02/25 12:11:31;;;;;;;5.67;2.67;;;;;;;12.03;32.34;98509.75;8352650;28;20236;-64
2022/02/25 12:15:37;;;;;;;8.90;2.80;;;;;;;11.48;32.23;98505.00;8352141;28;20240;-64
2022/02/25 12:20:06;;;;;;;8.40;2.30;;;;;;;11.26;32.56;98505.00;8352214;28;20236;-64
2022/02/25 12:24:14;;;;;;;7.03;2.20;;;;;;;11.49;33.02;98514.47;8352274;28;20239;-63
2022/02/25 12:28:48;;;;;;;11.50;2.60;;;;;;;10.62;34.49;98503.06;8352147;28;20240;-64
2022/02/25 12:32:57;;;;;;;10.83;2.53;;;;;;;11.33;34.18;98496.09;8292147;28;20232;-64
2022/02/25 12:37:00;;;;;;;7.90;2.13;;;;;;;11.46;33.67;98493.84;8318935;28;20239;-64
2022/02/25 12:41:13;;;;;;;6.80;2.37;;;;;;;11.81;32.99;98489.84;8318739;28;20261;-64
2022/02/25 12:45:27;;;;;;;9.83;2.60;;;;;;;11.48;33.98;98484.25;8318760;28;20543;-64
2022/02/25 12:49:32;;;;;;;6.47;1.93;;;;;;;12.58;31.77;98477.97;8336317;28;20232;-68
2022/02/25 12:53:49;;;;;;;9.10;2.53;;;;;;;11.90;31.80;98483.47;8349898;28;20224;-68
2022/02/25 12:57:53;;;;;;;7.93;2.53;;;;;;;11.75;32.29;98474.53;8349405;28;20571;-68
2022/02/25 13:01:58;;;;;;;10.23;2.63;;;;;;;11.99;32.48;98469.25;8349959;28;20232;-68
2022/02/25 13:06:03;;;;;;;8.27;2.07;;;;;;;11.72;32.06;98459.91;8349700;28;20352;-68
2022/02/25 13:10:07;;;;;;;8.63;2.40;;;;;;;11.47;32.52;98454.06;8349794;28;20235;-67
2022/02/25 13:14:14;;;;;;;11.67;2.30;;;;;;;11.01;32.04;98448.09;8348935;28;20418;-67
2022/02/25 13:18:21;;;;;;;6.47;2.00;;;;;;;11.14;32.09;98459.66;8349583;28;20231;-68
2022/02/25 13:22:27;;;;;;;5.20;2.07;;;;;;;11.67;31.94;98450.63;8347948;28;20235;-68
2022/02/25 13:26:30;;;;;;;5.87;2.07;;;;;;;11.45;30.96;98448.91;8350631;28;20244;-67
2022/02/25 13:30:35;;;;;;;10.63;2.30;;;;;;;10.98;32.22;98451.63;8349438;28;20413;-66
2022/02/25 13:34:38;;;;;;;6.93;2.30;;;;;;;11.01;32.34;98455.84;8350228;28;20232;-65
2022/02/25 13:38:43;;;;;;;9.60;2.30;;;;;;;10.54;32.93;98454.97;8349721;28;20243;-65
2022/02/25 13:42:46;;;;;;;6.67;2.20;;;;;;;10.26;33.68;98474.94;8349517;28;20574;-65
2022/02/25 13:46:50;;;;;;;12.77;3.93;;;;;;;9.77;39.96;98503.34;8349617;28;20250;-65
2022/02/25 13:55:43;;;;;;;10.20;2.70;;;;;;;8.88;49.23;98542.22;8349015;28;20413;-66
2022/02/25 13:59:47;;;;;;;7.77;2.37;;;;;;;8.50;50.92;98542.38;8348968;28;20235;-66
2022/02/25 14:03:51;;;;;;;8.67;2.97;;;;;;;8.60;51.37;98532.63;8349011;28;20236;-66
2022/02/25 14:07:56;;;;;;;9.97;2.83;;;;;;;9.08;50.36;98531.28;8348933;28;20420;-66
2022/02/25 14:12:06;;;;;;;9.87;2.93;;;;;;;9.47;49.91;98515.50;8348740;28;20232;-67
2022/02/25 14:16:12;;;;;;;9.53;3.23;;;;;;;9.43;50.10;98522.50;8346966;28;20224;-67
2022/02/25 14:20:18;;;;;;;8.27;2.70;;;;;;;9.78;50.01;98523.13;8347076;28;20224;-67
2022/02/25 14:24:26;;;;;;;7.43;2.50;;;;;;;9.68;50.04;98526.91;8346507;28;20429;-66
2022/02/25 14:28:35;;;;;;;10.93;2.50;;;;;;;9.81;51.13;98525.63;8344542;28;20224;-66
2022/02/25 14:32:48;;;;;;;7.33;3.00;;;;;;;9.87;50.84;98522.81;8347013;28;20231;-68
2022/02/25 14:36:51;;;;;;;11.33;3.00;;;;;;;10.04;50.58;98516.25;8347836;28;20244;-67
2022/02/25 14:40:53;;;;;;;8.53;2.40;;;;;;;10.04;50.76;98532.63;8347577;28;20239;-67
2022/02/25 14:44:59;;;;;;;6.07;2.00;;;;;;;9.76;49.59;98536.09;8347615;28;20234;-66
2022/02/25 14:49:02;;;;;;;7.33;2.40;;;;;;;9.18;50.66;98524.97;8347411;28;20240;-66
2022/02/25 14:53:05;;;;;;;6.17;2.20;;;;;;;9.25;51.45;98539.38;8347374;28;20235;-66
2022/02/25 14:57:09;;;;;;;10.27;4.28;;;;;;;9.81;49.77;98535.97;8345864;28;20411;-62
2022/02/25 15:01:14;;;;;;;6.57;3.33;;;;;;;9.51;50.69;98530.84;8347386;28;20232;-62
2022/02/25 15:05:18;;;;;;;6.50;3.07;;;;;;;9.20;51.43;98542.13;8347389;28;20227;-62
2022/02/25 15:09:21;;;;;;;7.57;2.67;;;;;;;9.85;50.27;98534.13;8346442;28;20239;-62
2022/02/25 15:13:24;;;;;;;9.80;2.83;;;;;;;9.71;50.05;98543.16;8343123;28;20228;-62
2022/02/25 15:17:28;;;;;;;6.93;2.30;;;;;;;9.45;50.64;98561.22;8341930;28;20231;-62
2022/02/25 15:21:31;;;;;;;10.30;2.60;;;;;;;9.05;51.24;98568.41;8345492;28;20287;-63
2022/02/25 15:25:36;;;;;;;8.37;3.03;;;;;;;9.06;50.64;98570.09;8346071;28;20228;-62
2022/02/25 15:29:40;;;;;;;7.97;2.83;;;;;;;9.10;51.02;98569.13;8343574;28;20232;-61
2022/02/25 15:33:44;;;;;;;7.70;2.57;;;;;;;9.39;50.08;98573.44;8314043;28;20248;-61
2022/02/25 15:37:48;;;;;;;9.57;3.00;;;;;;;9.22;50.59;98578.25;8349640;28;20235;-61
2022/02/25 15:41:52;;;;;;;9.97;3.00;;;;;;;9.05;50.61;98576.16;8352277;28;20240;-62
2022/02/25 15:45:55;;;;;;;11.87;3.70;;;;;;;9.29;49.32;98571.16;8352120;28;20235;-61
2022/02/25 15:49:59;;;;;;;10.53;3.37;;;;;;;9.43;49.51;98575.94;8349850;28;20335;-61
2022/02/25 15:54:07;;;;;;;11.27;3.33;;;;;;;9.58;48.98;98567.72;8349114;28;20251;-61
2022/02/25 15:58:10;;;;;;;10.37;4.13;;;;;;;9.53;49.08;98573.00;8351673;28;20224;-61
2022/02/25 16:02:14;;;;;;;8.87;3.27;;;;;;;9.53;48.62;98578.19;8351613;28;20229;-61
2022/02/25 16:06:19;;;;;;;11.40;3.70;;;;;;;9.51;48.73;98581.72;8351713;28;20227;-62
2022/02/25 16:10:23;;;;;;;9.63;4.17;;;;;;;9.39;48.90;98568.28;8351435;28;20234;-62
2022/02/25 16:14:26;;;;;;;12.10;4.30;;;;;;;9.30;48.48;98575.44;8348887;28;20228;-62
2022/02/25 16:18:30;;;;;;;9.80;4.33;;;;;;;9.47;48.21;98580.13;8348573;28;20228;-68
2022/02/25 16:22:39;;;;;;;11.77;4.50;;;;;;;9.58;48.10;98584.06;8341849;28;20235;-68
2022/02/25 16:26:44;;;;;;;11.17;4.40;;;;;;;9.51;47.66;98590.31;8347820;28;20239;-68
2022/02/25 16:30:56;;;;;;;14.03;4.70;;;;;;;9.45;47.67;98597.44;8354339;28;20298;-68
2022/02/25 16:35:02;;;;;;;12.20;3.93;;;;;;;9.20;47.75;98603.31;8350677;28;20582;-70
2022/02/25 16:39:07;;;;;;;10.23;5.23;;;;;;;9.41;47.16;98607.00;8371781;28;20291;-69
2022/02/25 16:43:11;;;;;;;15.00;6.10;;;;;;;9.39;47.21;98617.38;8351464;28;20347;-68
2022/02/25 16:47:14;;;;;;;12.73;6.47;;;;;;;9.18;47.13;98631.78;8350421;28;20527;-69
2022/02/25 16:51:17;;;;;;;15.80;6.27;;;;;;;8.99;48.36;98635.75;8354023;28;20230;-69
2022/02/25 16:55:22;;;;;;;14.57;9.03;;;;;;;9.21;47.68;98648.91;8370267;28;20287;-65
2022/02/25 16:59:26;;;;;;;14.07;8.20;;;;;;;8.96;48.27;98649.59;8351254;28;20228;-69
2022/02/25 17:03:29;;;;;;;13.17;6.43;;;;;;;8.95;48.03;98649.66;8351018;28;20239;-69
2022/02/25 17:07:32;;;;;;;19.07;10.87;;;;;;;8.90;48.23;98652.34;8349406;28;20223;-67
2022/02/25 17:11:37;;;;;;;14.37;5.03;;;;;;;8.44;48.89;98661.28;8350334;28;20243;-68
2022/02/25 17:15:40;;;;;;;12.50;6.60;;;;;;;8.82;48.63;98661.19;8350599;28;20232;-68
2022/02/25 17:19:43;;;;;;;10.60;4.30;;;;;;;8.73;48.52;98680.34;8350393;28;20238;-69
2022/02/25 17:23:46;;;;;;;11.80;4.73;;;;;;;8.62;48.79;98688.34;8350263;28;20240;-68
2022/02/25 17:27:51;;;;;;;12.07;3.77;;;;;;;8.86;48.42;98699.81;8349804;28;20244;-68
2022/02/25 17:31:54;;;;;;;19.13;10.93;;;;;;;8.69;48.96;98707.97;8349561;28;20370;-69
2022/02/25 17:36:18;;;;;;;12.03;4.20;;;;;;;8.69;48.99;98709.72;8349819;28;20228;-68
2022/02/25 17:40:22;;;;;;;10.97;4.60;;;;;;;8.74;49.04;98702.72;8349462;28;20551;-69
2022/02/25 17:44:27;;;;;;;11.87;6.17;;;;;;;8.73;48.92;98701.84;8349477;28;20326;-69
2022/02/25 17:48:30;;;;;;;11.83;5.90;;;;;;;8.79;48.93;98711.19;8348926;28;20566;-69
2022/02/25 17:52:34;;;;;;;12.55;4.28;;;;;;;9.11;48.07;98707.75;8347452;28;20419;-69
2022/02/25 17:56:38;;;;;;;13.67;5.43;;;;;;;8.68;49.82;98714.03;8349106;28;20401;-69
2022/02/25 18:00:42;;;;;;;10.10;5.50;;;;;;;8.71;49.22;98707.94;8348674;28;20573;-69
2022/02/25 18:04:46;;;;;;;11.53;5.27;;;;;;;8.56;49.93;98720.34;8348788;28;20231;-69
2022/02/25 18:08:50;;;;;;;13.33;4.43;;;;;;;8.60;49.94;98714.25;8348737;28;20232;-69
2022/02/25 18:12:53;;;;;;;12.33;5.60;;;;;;;8.66;49.52;98708.03;8348554;28;20238;-69
2022/02/25 18:16:58;;;;;;;10.03;3.67;;;;;;;8.84;49.37;98716.25;8347781;28;20232;-69
2022/02/25 18:21:02;;;;;;;9.60;3.73;;;;;;;8.76;49.27;98719.03;8348609;28;20240;-69
2022/02/25 18:25:05;;;;;;;11.73;3.23;;;;;;;8.76;49.41;98719.03;8348239;28;20239;-69
2022/02/25 18:29:09;;;;;;;10.47;3.10;;;;;;;8.57;50.16;98736.69;8347822;28;20570;-69
2022/02/25 18:33:13;;;;;;;7.80;3.20;;;;;;;8.64;50.59;98732.22;8348052;28;20235;-69
2022/02/25 18:37:16;;;;;;;12.87;3.60;;;;;;;8.38;51.55;98739.66;8348359;28;20542;-68
2022/02/25 18:41:20;;;;;;;10.90;5.03;;;;;;;8.42;52.03;98743.06;8346809;28;20235;-69
2022/02/25 18:45:23;;;;;;;12.40;3.60;;;;;;;8.32;52.88;98744.97;8346582;28;20240;-69
2022/02/25 18:49:28;;;;;;;10.97;3.57;;;;;;;8.38;52.92;98747.41;8347965;28;20228;-69
2022/02/25 18:53:32;;;;;;;9.67;3.60;;;;;;;8.54;52.51;98749.66;8347158;28;20228;-70
2022/02/25 18:57:35;;;;;;;11.97;3.90;;;;;;;8.50;52.81;98751.47;8346747;28;20228;-69
2022/02/25 19:01:38;;;;;;;10.83;3.33;;;;;;;8.03;54.37;98772.28;8347162;28;20231;-70
2022/02/25 19:05:43;;;;;;;9.67;2.93;;;;;;;7.93;55.20;98781.06;8346865;28;20228;-70
2022/02/25 19:09:46;;;;;;;8.50;2.93;;;;;;;7.91;55.79;98785.41;8347146;28;20232;-70
2022/02/25 19:13:49;;;;;;;6.53;2.30;;;;;;;7.64;55.57;98782.50;8353126;28;20244;-70
2022/02/25 19:17:52;;;;;;;6.03;2.20;;;;;;;8.03;54.65;98786.88;8353926;28;20232;-70
2022/02/25 19:21:58;;;;;;;3.17;1.40;;;;;;;7.80;55.60;98793.34;8353595;28;20232;-70
2022/02/25 19:26:07;;;;;;;2.83;1.33;;;;;;;7.64;56.00;98805.69;8350828;28;20242;-70